Time;durP1;ratioP1;P1;durP2;ratioP2;P2;SDS_P1;SDS_P2;PMS_P1;PMS_P2;Temp;Humidity;BMP_temperature;BMP_pressure;BME280_temperature;BME280_humidity;BME280_pressure;Samples;Min_cycle;Max_cycle;Signal;HPM_P1;HPM_P2
2022/02/02 00:01:06;;;;;;;95.70;42.92;;;;;;;;;;5034505;28;20366;-65
2022/02/02 00:03:33;;;;;;;82.18;35.88;;;;;;;;;;5032811;28;20394;-64
2022/02/02 00:06:38;;;;;;;79.43;34.78;;;;;;;;;;5033782;28;20385;-65
2022/02/02 00:09:02;;;;;;;58.03;21.77;;;;;;;;;;5032703;28;20050;-64
2022/02/02 00:14:17;;;;;;;57.47;23.35;;;;;;;;;;5033912;28;20448;-64
2022/02/02 00:16:50;;;;;;;54.60;25.15;;;;;;;;;;5033745;28;20045;-64
2022/02/02 00:22:08;;;;;;;69.50;31.48;;;;;;;;;;5033843;28;20117;-63
2022/02/02 00:27:05;;;;;;;66.95;28.63;;;;;;;;;;5033690;28;20033;-64
2022/02/02 00:29:40;;;;;;;77.43;35.65;;;;;;;;;;5032401;28;20048;-63
2022/02/02 00:32:18;;;;;;;83.15;37.22;;;;;;;;;;5033950;28;20393;-64
2022/02/02 00:34:45;;;;;;;73.47;33.58;;;;;;;;;;5033665;28;20017;-63
2022/02/02 00:37:12;;;;;;;68.45;30.45;;;;;;;;;;5033418;28;20029;-63
2022/02/02 00:39:38;;;;;;;70.32;29.98;;;;;;;;;;5033160;28;20482;-63
2022/02/02 00:42:04;;;;;;;69.15;29.13;;;;;;;;;;5033401;28;20036;-63
2022/02/02 00:46:57;;;;;;;79.03;36.38;;;;;;;;;;5032928;28;20063;-64
2022/02/02 00:49:23;;;;;;;98.32;42.28;;;;;;;;;;5033601;28;20099;-63
2022/02/02 00:51:54;;;;;;;79.57;33.25;;;;;;;;;;5033456;28;20116;-63
2022/02/02 00:54:21;;;;;;;104.28;43.38;;;;;;;;;;5033160;28;20030;-63
2022/02/02 00:56:48;;;;;;;79.40;33.05;;;;;;;;;;5033242;28;20030;-64
2022/02/02 00:59:15;;;;;;;80.22;35.30;;;;;;;;;;5033176;28;20021;-64
2022/02/02 01:01:41;;;;;;;73.72;35.10;;;;;;;;;;5031933;28;20112;-64
2022/02/02 01:04:08;;;;;;;85.07;37.47;;;;;;;;;;5033124;28;20025;-64
2022/02/02 01:06:38;;;;;;;95.80;43.67;;;;;;;;;;5033181;28;20029;-63
2022/02/02 01:09:22;;;;;;;101.87;45.27;;;;;;;;;;5033214;28;20496;-63
2022/02/02 01:20:15;;;;;;;123.27;48.60;;;;;;;;;;5032797;28;19959;-64
2022/02/02 01:28:12;;;;;;;248.57;101.93;;;;;;;;;;5036217;28;20052;-66
2022/02/02 01:30:38;;;;;;;210.10;86.85;;;;;;;;;;5035684;28;20037;-65
2022/02/02 01:33:05;;;;;;;203.07;85.93;;;;;;;;;;5035649;28;20061;-68
2022/02/02 01:35:31;;;;;;;163.73;69.30;;;;;;;;;;5036497;28;20108;-66
2022/02/02 01:37:57;;;;;;;159.77;67.93;;;;;;;;;;5036896;28;20033;-66
2022/02/02 01:40:29;;;;;;;153.68;64.93;;;;;;;;;;5035448;28;20470;-65
2022/02/02 01:43:05;;;;;;;164.38;68.47;;;;;;;;;;5035518;28;20364;-66
2022/02/02 01:45:39;;;;;;;143.55;64.28;;;;;;;;;;5036515;28;20041;-67
2022/02/02 01:56:05;;;;;;;148.30;62.73;;;;;;;;;;5036179;28;20037;-69
2022/02/02 02:01:04;;;;;;;136.02;57.55;;;;;;;;;;5036439;28;20037;-66
2022/02/02 02:03:30;;;;;;;150.48;64.63;;;;;;;;;;5036338;28;20025;-66
2022/02/02 02:05:57;;;;;;;133.93;57.65;;;;;;;;;;5036259;28;20454;-66
2022/02/02 02:08:24;;;;;;;125.90;55.25;;;;;;;;;;5036380;28;20037;-65
2022/02/02 02:10:50;;;;;;;128.17;54.33;;;;;;;;;;5034991;28;20033;-66
2022/02/02 02:16:02;;;;;;;168.00;69.73;;;;;;;;;;5035954;28;20448;-67
2022/02/02 02:18:29;;;;;;;196.63;79.70;;;;;;;;;;5036068;28;20037;-66
2022/02/02 02:20:56;;;;;;;188.33;77.97;;;;;;;;;;5034741;28;20390;-66
2022/02/02 02:23:24;;;;;;;180.05;76.63;;;;;;;;;;5036047;28;20033;-66
2022/02/02 02:25:50;;;;;;;139.65;60.72;;;;;;;;;;5035977;28;20025;-67
2022/02/02 02:31:54;;;;;;;192.13;80.33;;;;;;;;;;5035660;28;20516;-65
2022/02/02 02:39:24;;;;;;;162.93;72.18;;;;;;;;;;5034467;28;20097;-65
2022/02/02 02:55:53;;;;;;;146.23;66.93;;;;;;;;;;5035163;28;20120;-66
2022/02/02 02:58:40;;;;;;;154.95;68.60;;;;;;;;;;5034071;28;20366;-64
2022/02/02 03:31:15;;;;;;;162.35;72.82;;;;;;;;;;5034535;28;20040;-66
2022/02/02 03:58:48;;;;;;;271.15;112.72;;;;;;;;;;5012500;28;20042;-66
2022/02/02 04:06:10;;;;;;;229.57;101.32;;;;;;;;;;5034025;28;20053;-65
2022/02/02 04:08:38;;;;;;;213.90;93.50;;;;;;;;;;5034045;28;20044;-65
2022/02/02 04:11:15;;;;;;;180.15;84.50;;;;;;;;;;5032694;28;20029;-64
2022/02/02 04:54:48;;;;;;;91.05;40.25;;;;;;;;;;5033033;28;20432;-64
2022/02/02 04:58:23;;;;;;;89.40;38.45;;;;;;;;;;5033213;28;20021;-65
2022/02/02 05:08:29;;;;;;;58.22;26.83;;;;;;;;;;4991225;28;20036;-66
2022/02/02 05:16:35;;;;;;;61.90;25.98;;;;;;;;;;4991347;28;20038;-64
2022/02/02 05:48:35;;;;;;;83.72;36.08;;;;;;;;;;5032470;28;20037;-69
2022/02/02 05:53:46;;;;;;;84.47;37.92;;;;;;;;;;5032523;28;20041;-63
2022/02/02 05:56:12;;;;;;;88.82;36.80;;;;;;;;;;5032606;28;20060;-63
2022/02/02 05:58:39;;;;;;;77.65;34.17;;;;;;;;;;5032620;28;20030;-63
2022/02/02 06:01:10;;;;;;;75.75;34.17;;;;;;;;;;5032351;28;20080;-63
2022/02/02 06:03:59;;;;;;;78.60;35.53;;;;;;;;;;5032924;28;20061;-63
2022/02/02 06:06:26;;;;;;;67.50;28.42;;;;;;;;;;5032302;28;20041;-63
2022/02/02 06:08:53;;;;;;;61.10;27.02;;;;;;;;;;5031356;28;20038;-63
2022/02/02 06:11:23;;;;;;;60.72;27.15;;;;;;;;;;5031167;28;20030;-64
2022/02/02 06:13:53;;;;;;;60.05;27.90;;;;;;;;;;5033918;28;20032;-64
2022/02/02 06:16:20;;;;;;;53.55;26.60;;;;;;;;;;5036089;28;20025;-64
2022/02/02 06:18:54;;;;;;;61.03;28.48;;;;;;;;;;5036102;28;20018;-63
2022/02/02 06:21:22;;;;;;;59.20;27.90;;;;;;;;;;5034778;28;20083;-63
2022/02/02 06:23:53;;;;;;;59.47;29.58;;;;;;;;;;5034576;28;20033;-63
2022/02/02 06:26:21;;;;;;;57.53;28.48;;;;;;;;;;5036012;28;20030;-64
2022/02/02 06:28:48;;;;;;;72.15;35.17;;;;;;;;;;5036003;28;20025;-63
2022/02/02 06:31:15;;;;;;;79.13;36.35;;;;;;;;;;5034530;28;20355;-64
2022/02/02 06:33:42;;;;;;;95.05;43.80;;;;;;;;;;5034463;28;20454;-63
2022/02/02 06:36:12;;;;;;;114.05;50.30;;;;;;;;;;5034385;28;20032;-63
2022/02/02 06:38:38;;;;;;;118.85;53.70;;;;;;;;;;5035527;28;20029;-63
2022/02/02 06:41:05;;;;;;;136.18;59.95;;;;;;;;;;5035266;28;20057;-63
2022/02/02 06:43:31;;;;;;;145.60;61.97;;;;;;;;;;5030665;28;20021;-62
2022/02/02 06:46:01;;;;;;;149.60;63.33;;;;;;;;;;5023193;28;20026;-62
2022/02/02 06:48:30;;;;;;;140.80;65.90;;;;;;;;;;5024291;28;20057;-63
2022/02/02 06:51:37;;;;;;;153.02;70.70;;;;;;;;;;5025084;28;20034;-61
2022/02/02 06:53:56;;;;;;;145.38;66.72;;;;;;;;;;5014289;28;20029;-63
2022/02/02 07:02:19;;;;;;;147.32;66.47;;;;;;;;;;5015530;28;20088;-64
2022/02/02 07:08:15;;;;;;;113.05;53.78;;;;;;;;;;5015401;28;20040;-63
2022/02/02 07:13:58;;;;;;;98.63;45.78;;;;;;;;;;5015365;28;20144;-63
2022/02/02 07:19:05;;;;;;;147.40;69.70;;;;;;;;;;5015019;28;20040;-62
2022/02/02 07:21:49;;;;;;;158.32;73.38;;;;;;;;;;5015197;28;20131;-62
2022/02/02 07:27:41;;;;;;;252.07;112.20;;;;;;;;;;5015041;28;20026;-63
2022/02/02 07:32:24;;;;;;;357.23;165.52;;;;;;;;;;5014875;28;20038;-64
2022/02/02 07:35:16;;;;;;;174.43;81.32;;;;;;;;;;5014924;28;20467;-63
2022/02/02 07:37:47;;;;;;;113.10;56.72;;;;;;;;;;5014781;28;20080;-63
2022/02/02 07:40:14;;;;;;;112.30;57.20;;;;;;;;;;5014837;28;20022;-63
2022/02/02 07:42:45;;;;;;;132.80;66.15;;;;;;;;;;5014674;28;20080;-62
2022/02/02 07:45:12;;;;;;;135.47;67.03;;;;;;;;;;5014769;28;20033;-62
2022/02/02 07:47:40;;;;;;;153.32;71.28;;;;;;;;;;5014181;28;20275;-64
2022/02/02 07:50:08;;;;;;;205.48;93.75;;;;;;;;;;5019912;28;20425;-63
2022/02/02 07:52:35;;;;;;;225.25;101.80;;;;;;;;;;5030889;28;20367;-63
2022/02/02 07:55:04;;;;;;;227.35;108.85;;;;;;;;;;5032916;28;20045;-66
2022/02/02 07:57:30;;;;;;;195.98;97.63;;;;;;;;;;5034160;28;20041;-65
2022/02/02 08:00:00;;;;;;;163.57;80.97;;;;;;;;;;5034184;28;20037;-66
2022/02/02 08:04:56;;;;;;;157.38;86.10;;;;;;;;;;5033979;28;20386;-66
2022/02/02 08:07:28;;;;;;;149.05;70.90;;;;;;;;;;5033862;28;20037;-65
2022/02/02 08:12:46;;;;;;;128.27;61.15;;;;;;;;;;5031615;28;20048;-65
2022/02/02 08:15:13;;;;;;;94.20;45.25;;;;;;;;;;5014382;28;20058;-66
2022/02/02 08:17:40;;;;;;;83.10;37.60;;;;;;;;;;5012564;28;20061;-66
2022/02/02 08:20:07;;;;;;;72.93;35.05;;;;;;;;;;5011260;28;20038;-65
2022/02/02 08:22:33;;;;;;;64.85;28.17;;;;;;;;;;5015040;28;20144;-65
2022/02/02 08:24:59;;;;;;;122.90;56.25;;;;;;;;;;5013697;28;20029;-67
2022/02/02 08:27:26;;;;;;;75.78;32.88;;;;;;;;;;5013960;28;20029;-66
2022/02/02 08:29:53;;;;;;;76.95;36.88;;;;;;;;;;5013924;28;20033;-65
2022/02/02 08:32:19;;;;;;;75.03;36.70;;;;;;;;;;5013776;28;20080;-69
2022/02/02 08:34:49;;;;;;;107.60;51.78;;;;;;;;;;5013769;28;20088;-65
2022/02/02 08:37:16;;;;;;;100.97;46.95;;;;;;;;;;5012790;28;20069;-69
2022/02/02 08:42:18;;;;;;;80.03;39.63;;;;;;;;;;5013626;28;20030;-65
2022/02/02 08:45:10;;;;;;;82.07;40.63;;;;;;;;;;5013700;28;20026;-68
2022/02/02 08:47:34;;;;;;;75.03;37.05;;;;;;;;;;5012912;28;20116;-67
2022/02/02 08:50:02;;;;;;;66.30;33.67;;;;;;;;;;5013530;28;20040;-67
2022/02/02 08:52:44;;;;;;;76.03;37.88;;;;;;;;;;5013434;28;20026;-65
2022/02/02 08:55:11;;;;;;;91.65;42.03;;;;;;;;;;5011918;28;20041;-64
2022/02/02 08:57:46;;;;;;;74.50;37.33;;;;;;;;;;5013317;28;20137;-66
2022/02/02 09:00:15;;;;;;;72.82;35.75;;;;;;;;;;5013360;28;20022;-66
2022/02/02 09:02:54;;;;;;;77.32;39.20;;;;;;;;;;5013437;28;20389;-65
2022/02/02 09:05:23;;;;;;;78.10;37.33;;;;;;;;;;5012092;28;20033;-65
2022/02/02 09:07:50;;;;;;;61.60;29.67;;;;;;;;;;5012079;28;20030;-66
2022/02/02 09:19:59;;;;;;;51.95;26.77;;;;;;;;;;5013278;28;20068;-66
2022/02/02 09:35:00;;;;;;;106.15;48.63;;;;;;;;;;5020849;28;20473;-63
2022/02/02 09:37:27;;;;;;;74.20;38.65;;;;;;;;;;5024649;28;20033;-64
2022/02/02 09:40:12;;;;;;;71.70;36.92;;;;;;;;;;5032444;28;20531;-64
2022/02/02 09:42:38;;;;;;;71.00;37.17;;;;;;;;;;5032114;28;20049;-64
2022/02/02 09:45:10;;;;;;;66.80;35.25;;;;;;;;;;5032160;28;20030;-65
2022/02/02 09:47:40;;;;;;;61.42;31.17;;;;;;;;;;5032264;28;20046;-66
2022/02/02 09:50:14;;;;;;;63.40;30.83;;;;;;;;;;5034828;28;20030;-64
2022/02/02 09:52:44;;;;;;;62.53;31.42;;;;;;;;;;5036146;28;20026;-66
2022/02/02 10:05:28;;;;;;;34.08;19.50;;;;;;;;;;5035536;28;20048;-63
2022/02/02 10:13:52;;;;;;;43.38;23.30;;;;;;;;;;5035410;28;20381;-64
2022/02/02 10:16:14;;;;;;;37.38;19.17;;;;;;;;;;5033201;28;20068;-64
2022/02/02 10:18:40;;;;;;;38.90;19.83;;;;;;;;;;5035931;28;20026;-67
2022/02/02 10:21:06;;;;;;;40.47;22.02;;;;;;;;;;5034578;28;20037;-67
2022/02/02 10:23:34;;;;;;;48.03;21.83;;;;;;;;;;5035957;28;20417;-68
2022/02/02 10:26:13;;;;;;;42.88;20.20;;;;;;;;;;5034512;28;20057;-64
2022/02/02 10:28:40;;;;;;;31.30;15.77;;;;;;;;;;5034512;28;20036;-71
2022/02/02 10:31:07;;;;;;;40.20;18.48;;;;;;;;;;5034529;28;20025;-64
2022/02/02 10:33:34;;;;;;;27.40;15.32;;;;;;;;;;5035731;28;20068;-64
2022/02/02 10:36:07;;;;;;;36.53;19.13;;;;;;;;;;5035516;28;20021;-67
2022/02/02 10:38:44;;;;;;;37.55;17.05;;;;;;;;;;5034262;28;20029;-67
2022/02/02 10:43:44;;;;;;;28.75;13.38;;;;;;;;;;5035491;28;20033;-66
2022/02/02 10:46:27;;;;;;;21.42;10.65;;;;;;;;;;5035170;28;20854;-65
2022/02/02 10:49:03;;;;;;;25.23;13.02;;;;;;;;;;5035608;28;20033;-65
2022/02/02 10:51:48;;;;;;;29.02;12.10;;;;;;;;;;5034155;28;20047;-65
2022/02/02 10:54:24;;;;;;;28.80;12.57;;;;;;;;;;5035511;28;20036;-64
2022/02/02 10:57:01;;;;;;;29.55;12.15;;;;;;;;;;5035385;28;20018;-65
2022/02/02 11:07:15;;;;;;;29.15;13.27;;;;;;;;;;5035209;28;20063;-64
2022/02/02 11:09:42;;;;;;;26.90;12.48;;;;;;;;;;5035117;28;20029;-64
2022/02/02 11:12:09;;;;;;;27.38;12.88;;;;;;;;;;5035240;28;20028;-64
2022/02/02 11:14:46;;;;;;;32.95;16.23;;;;;;;;;;5035077;28;20485;-65
2022/02/02 11:17:24;;;;;;;28.90;14.00;;;;;;;;;;5034314;28;20025;-65
2022/02/02 11:19:52;;;;;;;43.72;18.75;;;;;;;;;;5033578;28;20108;-64
2022/02/02 11:22:20;;;;;;;48.40;17.55;;;;;;;;;;5032294;28;20038;-64
2022/02/02 11:24:46;;;;;;;39.78;17.10;;;;;;;;;;5034118;28;20470;-64
2022/02/02 11:27:31;;;;;;;42.40;18.75;;;;;;;;;;5034717;28;20051;-65
2022/02/02 11:29:57;;;;;;;40.17;18.33;;;;;;;;;;5034799;28;20022;-65
2022/02/02 11:32:23;;;;;;;39.30;16.50;;;;;;;;;;5034984;28;20034;-64
2022/02/02 11:35:09;;;;;;;38.53;19.58;;;;;;;;;;5034396;28;20021;-63
2022/02/02 11:37:55;;;;;;;40.65;19.05;;;;;;;;;;5034484;28;20060;-64
2022/02/02 11:40:21;;;;;;;50.80;25.58;;;;;;;;;;5033311;28;20087;-65
2022/02/02 11:43:02;;;;;;;38.95;20.52;;;;;;;;;;5033243;28;20038;-65
2022/02/02 11:45:48;;;;;;;36.70;20.33;;;;;;;;;;5034297;28;20134;-65
2022/02/02 11:48:33;;;;;;;44.80;21.45;;;;;;;;;;5034361;28;20052;-64
2022/02/02 11:51:01;;;;;;;43.42;21.63;;;;;;;;;;5034332;28;20075;-62
2022/02/02 11:53:46;;;;;;;36.17;19.75;;;;;;;;;;5045274;28;20033;-64
2022/02/02 11:56:12;;;;;;;41.53;20.38;;;;;;;;;;5013248;28;20052;-64
2022/02/02 11:58:39;;;;;;;39.70;20.98;;;;;;;;;;5014323;28;20113;-64
2022/02/02 12:01:11;;;;;;;41.88;18.67;;;;;;;;;;5013002;28;20060;-65
2022/02/02 12:06:39;;;;;;;38.00;19.25;;;;;;;;;;5014228;28;20422;-64
2022/02/02 12:49:35;;;;;;;26.98;13.02;;;;;;;;;;5033245;28;20510;-63
2022/02/02 12:58:18;;;;;;;28.55;13.70;;;;;;;;;;5028242;28;20111;-62
2022/02/02 13:00:24;;;;;;;21.40;12.30;;;;;;;;;;5026803;28;20128;-61
2022/02/02 13:02:51;;;;;;;28.77;11.98;;;;;;;;;;5032789;28;20026;-61
2022/02/02 13:05:22;;;;;;;23.90;10.90;;;;;;;;;;5031944;28;20032;-62
2022/02/02 13:07:48;;;;;;;19.48;10.18;;;;;;;;;;5030427;28;20065;-62
2022/02/02 13:10:20;;;;;;;20.40;11.15;;;;;;;;;;5031440;28;20044;-62
2022/02/02 13:12:54;;;;;;;22.25;10.82;;;;;;;;;;5031465;28;20068;-62
2022/02/02 13:20:44;;;;;;;19.75;8.40;;;;;;;;;;5032396;28;20140;-63
2022/02/02 13:26:13;;;;;;;16.00;6.97;;;;;;;;;;5002166;28;20141;-62
2022/02/02 13:28:59;;;;;;;18.70;7.45;;;;;;;;;;5039135;28;20037;-62
2022/02/02 13:31:29;;;;;;;25.88;9.45;;;;;;;;;;5039003;28;20063;-62
2022/02/02 13:34:13;;;;;;;16.58;7.35;;;;;;;;;;5039361;28;20079;-61
2022/02/02 13:37:21;;;;;;;15.75;7.50;;;;;;;;;;5037813;28;20032;-62
2022/02/02 14:04:19;;;;;;;14.80;7.53;;;;;;;;;;5038831;28;20605;-62
2022/02/02 14:33:24;;;;;;;15.98;8.07;;;;;;;;;;5038300;28;20040;-64
2022/02/02 14:35:53;;;;;;;13.80;8.43;;;;;;;;;;5035894;28;20458;-68
2022/02/02 14:38:20;;;;;;;11.55;7.40;;;;;;;;;;5035439;28;20462;-68
2022/02/02 14:43:20;;;;;;;31.02;12.98;;;;;;;;;;5035538;28;20073;-64
2022/02/02 14:45:51;;;;;;;23.25;10.38;;;;;;;;;;5033860;28;20123;-64
2022/02/02 14:48:26;;;;;;;;;;;;;;;;;;5035985;28;20079;-64
2022/02/02 14:53:52;;;;;;;25.55;10.95;;;;;;;;;;5015507;28;20065;-64
2022/02/02 15:08:55;;;;;;;20.38;10.23;;;;;;;;;;5034822;28;20036;-66
2022/02/02 15:24:36;;;;;;;22.25;11.35;;;;;;;;;;5014168;28;20475;-66
2022/02/02 15:32:07;;;;;;;13.48;8.63;;;;;;;;;;5014877;28;20077;-65
2022/02/02 15:34:49;;;;;;;15.25;8.60;;;;;;;;;;5014933;28;20463;-67
2022/02/02 15:40:05;;;;;;;17.38;8.65;;;;;;;;;;5017240;28;20083;-66
2022/02/02 15:58:32;;;;;;;24.77;13.63;;;;;;;;;;5033721;28;20184;-63
2022/02/02 16:01:51;;;;;;;30.70;17.02;;;;;;;;;;5033862;28;20087;-62
2022/02/02 16:03:52;;;;;;;27.77;13.07;;;;;;;;;;5033438;28;20120;-62
2022/02/02 16:06:22;;;;;;;40.25;20.90;;;;;;;;;;5033887;28;20030;-62
2022/02/02 16:08:56;;;;;;;38.92;20.25;;;;;;;;;;5031924;28;20470;-62
2022/02/02 16:11:29;;;;;;;27.85;15.90;;;;;;;;;;5033568;28;20032;-62
2022/02/02 16:14:00;;;;;;;30.13;14.38;;;;;;;;;;5033908;28;20108;-62
2022/02/02 16:19:00;;;;;;;23.48;12.65;;;;;;;;;;5033594;28;20037;-62
2022/02/02 16:37:48;;;;;;;17.00;9.60;;;;;;;;;;5033151;28;20037;-62
2022/02/02 16:40:20;;;;;;;17.95;8.90;;;;;;;;;;5032168;28;20033;-62
2022/02/02 16:45:31;;;;;;;16.35;9.18;;;;;;;;;;5033297;28;20123;-62
2022/02/02 16:47:57;;;;;;;25.38;10.48;;;;;;;;;;5033384;28;20025;-63
2022/02/02 16:50:29;;;;;;;27.50;13.18;;;;;;;;;;5033588;28;20033;-62
2022/02/02 16:52:59;;;;;;;27.02;13.07;;;;;;;;;;5033319;28;20025;-62
2022/02/02 17:29:36;;;;;;;44.65;20.45;;;;;;;;;;4991105;28;20074;-62
2022/02/02 17:31:50;;;;;;;;;;;;;;;;;;5031491;28;20042;-62
2022/02/02 17:34:17;;;;;;;23.13;11.77;;;;;;;;;;5032123;28;19944;-63
2022/02/02 17:36:50;;;;;;;28.42;10.30;;;;;;;;;;5031606;28;20053;-61
2022/02/02 17:39:19;;;;;;;26.70;11.88;;;;;;;;;;5032691;28;20064;-62
2022/02/02 17:42:15;;;;;;;28.17;11.75;;;;;;;;;;5030523;28;20552;-61
2022/02/02 17:45:09;;;;;;;26.67;12.82;;;;;;;;;;5025390;28;20026;-62
2022/02/02 17:56:27;;;;;;;21.73;11.65;;;;;;;;;;4992799;28;20033;-62
2022/02/02 18:20:51;;;;;;;22.10;12.23;;;;;;;;;;4994301;28;20138;-63
2022/02/02 18:34:10;;;;;;;27.67;14.65;;;;;;;;;;4993812;28;20104;-64
2022/02/02 18:46:48;;;;;;;26.10;14.05;;;;;;;;;;5023697;28;20061;-64
2022/02/02 19:00:12;;;;;;;27.33;12.95;;;;;;;;;;5032493;28;20522;-66
2022/02/02 19:08:06;;;;;;;23.38;11.93;;;;;;;;;;5035098;28;20030;-64
2022/02/02 19:56:46;;;;;;;14.43;7.75;;;;;;;;;;5033347;28;20429;-64
2022/02/02 20:02:37;;;;;;;13.82;7.22;;;;;;;;;;5033922;28;20121;-63
2022/02/02 20:05:22;;;;;;;14.02;7.78;;;;;;;;;;5033617;28;20033;-63
2022/02/02 20:08:07;;;;;;;19.17;8.32;;;;;;;;;;5032450;28;20032;-62
2022/02/02 20:13:12;;;;;;;13.07;7.18;;;;;;;;;;5033804;28;20034;-64
2022/02/02 20:15:40;;;;;;;15.00;8.25;;;;;;;;;;5033378;28;20033;-63
2022/02/02 20:18:08;;;;;;;12.60;7.35;;;;;;;;;;5033785;28;20129;-64
2022/02/02 20:20:38;;;;;;;11.98;7.43;;;;;;;;;;5032688;28;20068;-66
2022/02/02 20:23:06;;;;;;;15.32;8.13;;;;;;;;;;5033736;28;20132;-66
2022/02/02 20:25:34;;;;;;;14.95;7.93;;;;;;;;;;5033591;28;20025;-65
2022/02/02 20:28:05;;;;;;;15.75;8.43;;;;;;;;;;5033630;28;20499;-64
2022/02/02 20:30:33;;;;;;;17.27;9.02;;;;;;;;;;5032222;28;20033;-64
2022/02/02 20:32:59;;;;;;;21.27;9.23;;;;;;;;;;5032120;28;20116;-64
2022/02/02 20:35:25;;;;;;;16.38;9.30;;;;;;;;;;5032803;28;20025;-66
2022/02/02 20:37:51;;;;;;;23.23;12.60;;;;;;;;;;5031865;28;20465;-64
2022/02/02 20:40:17;;;;;;;29.95;14.23;;;;;;;;;;5033306;28;20043;-65
2022/02/02 20:42:57;;;;;;;35.65;17.35;;;;;;;;;;5033442;28;20079;-64
2022/02/02 21:14:39;;;;;;;16.83;9.40;;;;;;;;;;5033076;28;20545;-63
2022/02/02 21:17:07;;;;;;;21.00;10.00;;;;;;;;;;5031891;28;20069;-62
2022/02/02 21:19:47;;;;;;;17.00;9.38;;;;;;;;;;5032971;28;20108;-62
2022/02/02 21:22:14;;;;;;;17.35;9.45;;;;;;;;;;5033069;28;20025;-61
2022/02/02 21:27:30;;;;;;;31.50;15.75;;;;;;;;;;5033005;28;20087;-61
2022/02/02 21:29:56;;;;;;;28.20;13.63;;;;;;;;;;5033017;28;20030;-64
2022/02/02 21:32:25;;;;;;;32.88;14.35;;;;;;;;;;5032607;28;20386;-64
2022/02/02 21:34:52;;;;;;;31.38;14.85;;;;;;;;;;5032813;28;20454;-62
2022/02/02 21:37:19;;;;;;;37.92;16.55;;;;;;;;;;5032943;28;20032;-62
2022/02/02 21:39:55;;;;;;;35.03;14.93;;;;;;;;;;5031434;28;20056;-62
2022/02/02 21:42:21;;;;;;;29.30;12.32;;;;;;;;;;5032814;28;20025;-62
2022/02/02 21:44:47;;;;;;;19.83;8.63;;;;;;;;;;5035379;28;20030;-62
2022/02/02 21:47:13;;;;;;;22.60;10.40;;;;;;;;;;5017028;28;20121;-61
2022/02/02 21:49:42;;;;;;;23.92;10.38;;;;;;;;;;5017041;28;20112;-62
2022/02/02 21:52:11;;;;;;;22.45;9.90;;;;;;;;;;5015617;28;20026;-62
2022/02/02 21:54:37;;;;;;;20.38;9.88;;;;;;;;;;5016993;28;20026;-62
2022/02/02 21:57:05;;;;;;;26.00;10.15;;;;;;;;;;5016784;28;20025;-62
2022/02/02 21:59:31;;;;;;;22.40;10.25;;;;;;;;;;5016752;28;20022;-63
2022/02/02 22:01:58;;;;;;;19.63;9.90;;;;;;;;;;5016785;28;20037;-62
2022/02/02 22:04:24;;;;;;;16.08;8.75;;;;;;;;;;5016439;28;20482;-62
2022/02/02 22:06:50;;;;;;;18.40;9.35;;;;;;;;;;5016946;28;20108;-62
2022/02/02 22:09:16;;;;;;;20.38;9.85;;;;;;;;;;5016361;28;20108;-62
2022/02/02 22:11:42;;;;;;;21.95;10.20;;;;;;;;;;5014997;28;20051;-62
2022/02/02 22:14:15;;;;;;;25.20;10.80;;;;;;;;;;5015258;28;20033;-63
2022/02/02 22:16:42;;;;;;;19.17;9.23;;;;;;;;;;5016598;28;20033;-62
2022/02/02 22:19:09;;;;;;;20.30;9.95;;;;;;;;;;5016368;28;20037;-62
2022/02/02 22:21:35;;;;;;;16.42;8.38;;;;;;;;;;5016377;28;20057;-62
2022/02/02 22:24:02;;;;;;;26.88;9.68;;;;;;;;;;5016399;28;20534;-62
2022/02/02 22:26:29;;;;;;;16.73;8.30;;;;;;;;;;5016053;28;20383;-62
2022/02/02 22:28:55;;;;;;;17.73;8.48;;;;;;;;;;5016225;28;20025;-62
2022/02/02 22:31:22;;;;;;;16.13;7.93;;;;;;;;;;5016266;28;20105;-62
2022/02/02 22:33:48;;;;;;;18.55;7.72;;;;;;;;;;5016246;28;20102;-62
2022/02/02 22:36:15;;;;;;;25.35;8.40;;;;;;;;;;5014860;28;20452;-62
2022/02/02 22:38:43;;;;;;;20.38;9.05;;;;;;;;;;5016057;28;20041;-62
2022/02/02 22:41:10;;;;;;;18.30;7.97;;;;;;;;;;5016059;28;20032;-62
2022/02/02 22:43:44;;;;;;;18.80;8.30;;;;;;;;;;5016052;28;20451;-62
2022/02/02 22:46:10;;;;;;;15.60;8.23;;;;;;;;;;5026758;28;20050;-62
2022/02/02 22:48:39;;;;;;;18.23;8.55;;;;;;;;;;5035735;28;20087;-62
2022/02/02 22:51:05;;;;;;;16.38;8.50;;;;;;;;;;5035614;28;20021;-62
2022/02/02 22:53:32;;;;;;;18.75;8.23;;;;;;;;;;5035615;28;20061;-62
2022/02/02 22:55:58;;;;;;;16.05;8.23;;;;;;;;;;5034266;28;20033;-62
2022/02/02 22:58:25;;;;;;;18.08;8.27;;;;;;;;;;5035751;28;20104;-62
2022/02/02 23:00:51;;;;;;;22.08;8.55;;;;;;;;;;5035761;28;20029;-62
2022/02/02 23:03:21;;;;;;;17.80;8.52;;;;;;;;;;5034155;28;20064;-63
2022/02/02 23:05:52;;;;;;;15.32;8.23;;;;;;;;;;5034056;28;20060;-63
2022/02/02 23:08:20;;;;;;;22.33;9.23;;;;;;;;;;5034156;28;20393;-63
2022/02/02 23:10:47;;;;;;;25.17;9.93;;;;;;;;;;5035318;28;20351;-62
2022/02/02 23:13:14;;;;;;;24.65;9.70;;;;;;;;;;5035291;28;20034;-63
2022/02/02 23:15:53;;;;;;;23.95;9.88;;;;;;;;;;5035189;28;20036;-63
2022/02/02 23:18:25;;;;;;;24.08;9.07;;;;;;;;;;5034861;28;20478;-62
2022/02/02 23:20:56;;;;;;;15.55;7.13;;;;;;;;;;5033573;28;20030;-65
2022/02/02 23:23:23;;;;;;;18.37;6.83;;;;;;;;;;5035176;28;20049;-63
2022/02/02 23:25:50;;;;;;;18.73;7.88;;;;;;;;;;5033414;28;20029;-63
2022/02/02 23:28:22;;;;;;;26.00;9.77;;;;;;;;;;5035018;28;20120;-61
2022/02/02 23:30:48;;;;;;;39.95;16.60;;;;;;;;;;5034978;28;20415;-61
2022/02/02 23:33:14;;;;;;;34.30;14.05;;;;;;;;;;5033562;28;20112;-62
2022/02/02 23:35:41;;;;;;;36.88;13.82;;;;;;;;;;5035006;28;20056;-62
2022/02/02 23:38:08;;;;;;;19.48;8.90;;;;;;;;;;5034784;28;20017;-62
2022/02/02 23:41:06;;;;;;;11.82;5.82;;;;;;;;;;5034672;28;20418;-62
2022/02/02 23:43:22;;;;;;;10.65;4.90;;;;;;;;;;5034547;28;20042;-62
2022/02/02 23:45:54;;;;;;;12.02;5.60;;;;;;;;;;5032956;28;20136;-62
2022/02/02 23:48:22;;;;;;;15.45;6.80;;;;;;;;;;5034680;28;20045;-62
2022/02/02 23:50:51;;;;;;;17.63;7.32;;;;;;;;;;5034523;28;20025;-62
2022/02/02 23:53:18;;;;;;;17.15;6.63;;;;;;;;;;5034529;28;20378;-62
2022/02/02 23:55:47;;;;;;;11.27;5.85;;;;;;;;;;5034452;28;20107;-62
2022/02/02 23:58:37;;;;;;;10.52;5.63;;;;;;;;;;5034394;28;20065;-62
